Flight Track Log - Related Links

Times and Time Zones

All times are in EDT time to prevent confusion due to time zone crossing. See the JZA8145 flight status page for this flight to view local times or setup timezone preferences in your user account.

Time Position Orientation Groundspeed Altitude Reporting Facility
EDT Latitude Longitude Course Direction KTS MPH feet Rate Location/Type
Mon 02:58:38 PM 53.2333 -113.5333 166° South 140 161 5,000  Level Edmonton Center
Mon 02:59:38 PM 53.1833 -113.5667 202° Southwest 150 173 6,400 1,550 Climbing Edmonton Center
Mon 03:00:38 PM 53.1500 -113.5500 163° South 150 173 8,100 1,400 Climbing Edmonton Center
Mon 03:01:00 PM 53.0611 -113.8148 169° South  Level FlightAware Approximate
Mon 03:01:38 PM 53.1000 -113.5333 169° South 170 196 9,200  Level Edmonton Center
Mon 03:02:00 PM 52.9942 -113.7925 169° South  Level FlightAware Approximate
Mon 03:02:38 PM 53.0500 -113.5667 202° Southwest 180 207 10,400  Level Edmonton Center
Mon 03:03:00 PM 52.9274 -113.7702 169° South  Level FlightAware Approximate
Mon 03:04:00 PM 52.9578 -113.5892 188° South  Level Estimated
Mon 03:04:00 PM 52.8611 -113.7444 166° South  Level FlightAware Approximate
Mon 03:05:38 PM 52.8833 -113.5500 188° South 190 219 14,100  Level Edmonton Center
Mon 03:07:00 PM 52.7915 -113.5754 170° South  Level Estimated
Mon 03:07:38 PM 52.7667 -113.5500 170° South 200 230 16,300  Level Edmonton Center
Mon 03:08:38 PM 52.7167 -113.5833 202° Southwest 210 242 16,900 300 Climbing Edmonton Center
Mon 03:09:38 PM 52.6500 -113.5833 180° South 240 276 16,900  Level Edmonton Center
Mon 03:10:38 PM 52.5667 -113.5667 173° South 260 299 16,900  Level Edmonton Center
Mon 03:11:00 PM 52.4857 -113.7030 188° South  Level Estimated
Mon 03:11:38 PM 52.5000 -113.5833 189° South 270 311 16,900  Level Edmonton Center
Mon 03:12:38 PM 52.4167 -113.6000 187° South 280 322 16,900  Level Edmonton Center
Mon 03:13:38 PM 52.3333 -113.5833 173° South 280 322 16,900  Level Edmonton Center
Mon 03:15:00 PM 52.2160 -113.5364 166° South  Level FlightAware Approximate
Mon 03:15:38 PM 52.1667 -113.6000 166° South 270 311 16,900  Level Edmonton Center
Mon 03:16:38 PM 52.1000 -113.5833 171° South 270 311 16,900  Level Edmonton Center
Mon 03:17:38 PM 52.0167 -113.6000 187° South 280 322 16,900 -667 Level Edmonton Center
Mon 03:19:00 PM 51.8961 -113.5890 177° South  Level FlightAware Approximate
Mon 03:19:38 PM 51.8667 -113.6167 177° South 290 334 14,900  Level Edmonton Center
Mon 03:20:38 PM 51.7833 -113.6333 187° South 290 334 13,200 -1,433 Descending Edmonton Center
Mon 03:22:00 PM 51.6662 -113.6833 180° South  Level FlightAware Approximate
Mon 03:22:38 PM 51.6333 -113.6833 180° South 270 311 10,600  Level Edmonton Center
Mon 03:23:38 PM 51.5667 -113.7333 205° Southwest 260 299 9,600 -900 Descending Edmonton Center
Mon 03:24:38 PM 51.5167 -113.7667 202° Southwest 250 288 8,800 -480 Descending Edmonton Center
Mon 03:25:00 PM 51.4544 -113.8049 202° Southwest  Level FlightAware Approximate
Mon 03:28:00 PM 51.3034 -113.8945 199° South  Level FlightAware Approximate
Mon 03:28:38 PM 51.2833 -113.9667 199° South 210 242 7,200  Level Edmonton Center
Mon 03:29:38 PM 51.2167 -114.0167 205° Southwest 210 242 6,500 -950 Descending Edmonton Center
Mon 03:30:38 PM 51.1667 -114.0167 180° South 190 219 5,300 -580 Descending Edmonton Center
Mon 03:34:38 PM 51.0833 -114.0333 187° South 20 23 3,600 -425 Descending Edmonton Center

Login

Don't have an account? Register now (free) for customized features, flight alerts, and more!